Latest Weather Observations for Onslow Airport

IDW60801

Issued at 5:05 pm WST Thursday 27 November 2014 (issued every 30 minutes, with the page automatically refreshed every 10 minutes)

About weather observations | Map of weather stations | Latest weather observations for WA | Other Formats
Station Details ID: 005017 Name: ONSLOW AIRPORT Lat: -21.67 Lon: 115.11 Height: 10.5 m
Data from the previous 72 hours. | See also: Recent months at Onslow Airport
Date/Time
WST
Temp
°C
App
Temp
°C
Dew
Point
Rel
Hum
%
Delta-T
°C
Wind Press
QNH
hPa
Press
MSL
hPa
Rain
since 9 am
mm
Dir
 
Spd
km/h
Gust
km/h
Spd
kts
Gust
kts
27/05:00pm 26.5 22.5 18.6 62 5.0 W 37 44 20 24 1009.8 1009.8 0.0
27/04:30pm 27.1 23.3 18.9 61 5.3 W 37 46 20 25 1009.6 1009.6 0.0
27/04:00pm 27.6 24.5 18.9 59 5.6 W 33 43 18 23 1009.6 1009.6 0.0
27/03:30pm 27.9 24.5 19.1 58 5.7 W 35 43 19 23 1009.6 1009.6 0.0
27/03:00pm 27.8 24.9 19.3 60 5.5 W 33 41 18 22 1009.7 1009.7 0.0
27/02:30pm 29.3 26.9 19.0 53 6.7 WNW 30 37 16 20 1009.9 1009.9 0.0
27/02:00pm 28.6 25.8 19.0 56 6.2 WNW 32 37 17 20 1009.9 1009.9 0.0
27/01:30pm 28.8 26.7 18.9 55 6.4 WNW 28 35 15 19 1010.1 1010.1 0.0
27/01:00pm 29.6 28.0 18.4 51 7.2 WNW 24 30 13 16 1010.3 1010.3 0.0
27/12:30pm 29.4 28.4 18.8 53 6.8 WNW 22 28 12 15 1010.3 1010.3 0.0
27/12:00pm 29.8 28.4 18.9 52 7.1 WNW 24 30 13 16 1010.4 1010.4 0.0
27/11:30am 29.4 28.4 18.8 53 6.8 WNW 22 32 12 17 1010.6 1010.6 0.0
27/11:00am 30.1 29.8 19.2 52 7.1 NW 19 26 10 14 1010.8 1010.8 0.0
27/10:30am 29.9 29.5 19.0 52 7.1 NW 19 24 10 13 1010.9 1010.9 0.0
27/10:00am 28.8 28.6 19.4 56 6.1 NW 19 22 10 12 1011.1 1011.1 0.0
27/09:30am 28.8 29.8 18.6 54 6.6 W 11 19 6 10 1010.8 1010.8 0.0
27/09:00am 29.5 30.9 17.7 49 7.5 E 7 13 4 7 1011.0 1011.0 0.0
27/08:30am 27.9 28.7 17.4 52 6.6 S 9 13 5 7 1011.2 1011.2 0.0
27/08:00am 26.2 27.3 18.1 61 5.1 SSW 9 13 5 7 1011.2 1011.2 0.0
27/07:30am 25.3 26.1 18.2 64 4.5 SW 11 17 6 9 1010.9 1010.9 0.0
27/07:00am 23.8 24.1 18.0 70 3.6 SW 13 17 7 9 1010.9 1010.9 0.0
27/06:30am 22.8 23.6 18.1 75 2.9 WSW 11 15 6 8 1010.7 1010.7 0.0
27/06:00am 21.4 22.8 17.8 80 2.2 W 7 11 4 6 1010.5 1010.5 0.0
27/05:30am 21.7 22.4 17.9 79 2.4 WSW 11 13 6 7 1010.4 1010.4 0.0
27/05:00am 22.3 22.7 18.1 77 2.6 SW 13 17 7 9 1010.3 1010.3 0.0
27/04:30am 22.7 22.4 18.3 76 2.8 SSW 17 19 9 10 1010.2 1010.2 0.0
27/04:00am 22.8 22.4 18.1 75 2.9 SSW 17 20 9 11 1010.1 1010.1 0.0
27/03:30am 22.9 21.9 18.0 74 3.1 S 20 24 11 13 1009.9 1009.9 0.0
27/03:00am 23.1 22.2 18.2 74 3.1 SSW 20 26 11 14 1009.9 1009.9 0.0
27/02:30am 23.2 21.6 18.3 74 3.1 SSW 24 30 13 16 1010.0 1010.0 0.0
27/02:00am 23.3 22.4 18.2 73 3.2 SSW 20 28 11 15 1010.0 1010.0 0.0
27/01:30am 23.6 22.1 18.5 73 3.2 SSW 24 33 13 18 1010.0 1010.0 0.0
27/01:00am 24.0 22.4 19.1 74 3.1 SSW 26 33 14 18 1010.1 1010.1 0.0
27/12:30am 24.2 23.9 19.5 75 3.0 SSW 20 28 11 15 1010.4 1010.4 0.0
27/12:00am 24.1 24.4 19.6 76 2.9 SW 17 24 9 13 1010.4 1010.4 0.0
 
Date/Time
WST
Temp
°C
App
Temp
°C
Dew
Point
Rel
Hum
%
Delta-T
°C
Wind Press
QNH
hPa
Press
MSL
hPa
Rain
since 9 am
mm
Dir
 
Spd
km/h
Gust
km/h
Spd
kts
Gust
kts
26/11:30pm 23.6 23.9 19.5 78 2.6 WSW 17 20 9 11 1010.4 1010.4 0.0
26/11:00pm 23.7 24.4 19.6 78 2.6 WSW 15 20 8 11 1010.3 1010.3 0.0
26/10:30pm 23.9 24.3 19.8 78 2.6 WSW 17 20 9 11 1010.2 1010.2 0.0
26/10:00pm 24.0 24.8 19.9 78 2.6 WSW 15 20 8 11 1010.1 1010.1 0.0
26/09:30pm 24.0 24.5 20.1 79 2.5 W 17 22 9 12 1009.7 1009.7 0.0
26/09:00pm 24.1 24.8 20.4 80 2.4 W 17 22 9 12 1009.6 1009.6 0.0
26/08:30pm 24.2 24.4 20.5 80 2.4 WSW 20 28 11 15 1009.5 1009.5 0.0
26/08:00pm 24.5 23.9 20.6 79 2.5 W 24 32 13 17 1009.3 1009.3 0.0
26/07:30pm 24.6 24.1 20.7 79 2.6 W 24 30 13 16 1009.0 1009.0 0.0
26/07:00pm 24.8 23.5 20.7 78 2.7 W 28 33 15 18 1008.6 1008.6 0.0
26/06:30pm 25.3 24.8 20.8 76 3.0 W 24 32 13 17 1008.4 1008.4 0.0
26/06:00pm 26.2 25.7 20.7 71 3.6 W 24 32 13 17 1008.1 1008.1 0.0
26/05:30pm 26.6 24.8 20.4 69 4.1 W 30 35 16 19 1007.9 1007.9 0.0
26/05:00pm 27.2 26.4 20.8 68 4.2 W 26 37 14 20 1007.8 1007.8 0.0
26/04:30pm 27.5 26.3 20.8 67 4.4 WNW 28 37 15 20 1007.7 1007.7 0.0
26/04:00pm 27.9 26.3 20.7 65 4.8 WNW 30 35 16 19 1007.8 1007.8 0.0
26/03:30pm 28.1 26.9 20.9 65 4.8 WNW 28 33 15 18 1008.1 1008.1 0.0
26/03:00pm 28.3 27.0 21.3 65 4.7 WNW 30 35 16 19 1008.3 1008.3 0.0
26/02:30pm 29.1 27.7 21.1 62 5.3 WNW 30 37 16 20 1008.4 1008.4 0.0
26/02:00pm 28.9 27.5 21.1 62 5.2 WNW 30 37 16 20 1008.7 1008.7 0.0
26/01:30pm 28.8 27.3 21.0 62 5.2 NW 30 35 16 19 1008.9 1008.9 0.0
26/01:00pm 28.9 28.0 20.6 61 5.5 NW 26 33 14 18 1009.1 1009.1 0.0
26/12:30pm 29.1 28.4 20.3 59 5.8 NW 24 30 13 16 1009.2 1009.2 0.0
26/12:00pm 29.7 28.9 20.0 56 6.4 NW 24 32 13 17 1009.6 1009.6 0.0
26/11:30am 29.8 29.1 19.5 54 6.7 NW 22 32 12 17 1009.8 1009.8 0.0
26/11:00am 29.1 28.7 19.4 55 6.3 NW 20 28 11 15 1009.9 1009.9 0.0
26/10:30am 28.6 28.6 19.8 59 5.7 NW 19 26 10 14 1010.2 1010.2 0.0
26/10:00am 28.4 28.7 19.6 59 5.7 NNW 17 24 9 13 1010.5 1010.5 0.0
26/09:30am 28.8 30.1 19.4 56 6.1 NNW 11 19 6 10 1010.6 1010.6 0.0
26/09:00am 26.8 27.9 19.7 65 4.6 NW 13 19 7 10 1010.8 1010.8 0.0
26/08:30am 26.6 28.0 19.5 65 4.6 NW 11 15 6 8 1010.9 1010.9 0.0
26/08:00am 26.3 28.7 18.9 63 4.7 SSW 4 7 2 4 1010.7 1010.7 0.0
26/07:30am 25.6 27.3 19.3 68 4.0 SSW 9 11 5 6 1010.8 1010.8 0.0
26/07:00am 24.3 26.1 19.6 75 3.0 WSW 9 13 5 7 1010.7 1010.7 0.0
26/06:30am 23.3 25.5 19.7 80 2.3 WSW 7 11 4 6 1010.8 1010.8 0.0
26/06:00am 22.7 24.1 19.5 82 2.0 SW 11 15 6 8 1010.5 1010.5 0.0
26/05:30am 22.7 24.1 19.5 82 2.0 SSW 11 13 6 7 1010.6 1010.6 0.0
26/05:00am 22.8 23.9 19.6 82 2.0 SSW 13 17 7 9 1010.2 1010.2 0.0
26/04:30am 22.8 23.2 19.8 83 1.9 S 17 20 9 11 1010.0 1010.0 0.0
26/04:00am 23.0 23.4 19.8 82 2.1 SSW 17 20 9 11 1009.2 1009.2 0.0
26/03:30am 23.3 23.8 20.1 82 2.1 SSW 17 20 9 11 1008.9 1008.9 0.0
26/03:00am 23.4 23.9 20.1 82 2.1 SW 17 20 9 11 1008.9 1008.9 0.0
26/02:30am 23.6 24.5 20.1 81 2.3 SSW 15 20 8 11 1008.9 1008.9 0.0
26/02:00am 23.4 24.8 20.3 83 2.0 SW 13 19 7 10 1009.0 1009.0 0.0
26/01:30am 23.2 25.2 20.7 86 1.6 WSW 11 15 6 8 1009.1 1009.1 0.0
26/01:00am 23.4 25.1 20.9 86 1.6 W 13 17 7 9 1008.8 1008.8 0.0
26/12:30am 23.6 24.5 20.9 85 1.8 W 17 22 9 12 1008.9 1008.9 0.0
26/12:00am 23.7 24.3 21.0 85 1.8 W 19 24 10 13 1009.0 1009.0 0.0
 
Date/Time
WST
Temp
°C
App
Temp
°C
Dew
Point
Rel
Hum
%
Delta-T
°C
Wind Press
QNH
hPa
Press
MSL
hPa
Rain
since 9 am
mm
Dir
 
Spd
km/h
Gust
km/h
Spd
kts
Gust
kts
25/11:30pm 23.9 24.3 21.0 84 1.9 W 20 26 11 14 1009.2 1009.2 0.0
25/11:00pm 24.0 24.4 20.9 83 2.0 W 20 28 11 15 1009.3 1009.3 0.0
25/10:30pm 24.2 24.6 20.9 82 2.2 W 20 28 11 15 1009.4 1009.4 0.0
25/10:00pm 24.4 23.6 20.9 81 2.3 W 26 32 14 17 1009.4 1009.4 0.0
25/09:30pm 24.4 23.5 20.7 80 2.4 W 26 35 14 19 1009.1 1009.1 0.0
25/09:00pm 24.6 23.5 21.1 81 2.3 W 28 35 15 19 1008.7 1008.7 0.0
25/08:30pm 24.8 22.8 21.1 80 2.4 W 33 44 18 24 1008.6 1008.6 0.0
25/08:00pm 24.9 23.6 20.6 77 2.8 W 28 39 15 21 1008.4 1008.4 0.0
25/07:30pm 25.0 23.8 20.9 78 2.7 W 28 37 15 20 1008.3 1008.3 0.0
25/07:00pm 25.2 24.6 21.3 79 2.6 W 26 32 14 17 1007.9 1007.9 0.0
25/06:30pm 25.7 24.2 20.9 75 3.2 W 30 37 16 20 1007.6 1007.6 0.0
25/06:00pm 26.2 24.2 20.7 71 3.6 W 32 41 17 22 1007.4 1007.4 0.0
25/05:30pm 26.8 24.4 20.4 68 4.2 W 33 41 18 22 1007.2 1007.2 0.0
25/05:00pm 28.1 26.3 20.4 63 5.1 W 30 37 16 20 1007.2 1007.2 0.0
25/04:30pm 28.2 25.3 20.0 61 5.4 W 35 43 19 23 1007.2 1007.2 0.0
25/04:00pm 28.6 24.4 18.1 53 6.7 WNW 37 46 20 25 1007.2 1007.2 0.0
25/03:30pm 30.3 28.5 21.1 58 6.1 WNW 32 39 17 21 1007.2 1007.2 0.0
25/03:00pm 31.3 28.3 18.6 46 8.2 WNW 32 39 17 21 1007.4 1007.4 0.0
25/02:30pm 30.7 27.8 18.8 49 7.7 WNW 32 41 17 22 1007.8 1007.8 0.0
25/02:00pm 31.1 29.5 20.7 54 6.9 WNW 30 35 16 19 1008.1 1008.1 0.0
25/01:30pm 31.1 29.8 19.8 51 7.4 WNW 26 32 14 17 1008.5 1008.5 0.0
25/01:00pm 31.2 30.5 20.2 52 7.3 WNW 24 30 13 16 1008.7 1008.7 0.0
25/12:30pm 30.9 29.9 19.6 51 7.4 WNW 24 30 13 16 1009.1 1009.1 0.0
25/12:00pm 30.7 29.9 20.0 52 7.1 WNW 24 30 13 16 1009.4 1009.4 0.0
25/11:30am 31.2 31.0 20.5 53 7.1 WNW 22 26 12 14 1009.7 1009.7 0.0
25/11:00am 30.9 31.1 20.2 53 7.1 NW 19 24 10 13 1010.3 1010.3 0.0
25/10:30am 30.4 30.7 19.7 52 7.0 WNW 17 22 9 12 1010.5 1010.5 0.0
25/10:00am 30.2 30.6 19.9 54 6.8 WNW 17 24 9 13 1010.6 1010.6 0.0
25/09:30am 29.6 30.8 19.0 53 6.9 W 11 15 6 8 1010.9 1010.9 0.0
25/09:00am 30.0 30.4 15.3 41 9.0 SW 7 15 4 8 1010.9 1010.9 0.0
25/08:30am 28.8 29.5 17.0 49 7.4 SSW 9 13 5 7 1010.9 1010.9 0.0
25/08:00am 27.0 27.1 17.5 56 6.0 SSW 13 15 7 8 1010.7 1010.7 0.0
25/07:30am 25.7 26.2 18.4 64 4.6 WSW 13 17 7 9 1010.8 1010.8 0.0
25/07:00am 24.1 24.4 18.7 72 3.4 WSW 15 17 8 9 1010.7 1010.7 0.0
25/06:30am 22.8 23.6 18.1 75 2.9 WSW 11 13 6 7 1010.5 1010.5 0.0
25/06:00am 21.3 21.7 17.3 78 2.5 W 11 13 6 7 1010.3 1010.3 0.0
25/05:30am 20.5 20.8 16.9 80 2.2 W 11 13 6 7 1010.1 1010.1 0.0
25/05:00am 20.1 21.0 16.5 80 2.2 W 7 9 4 5 1010.0 1010.0 0.0
25/04:30am 20.8 21.2 16.4 76 2.7 WSW 9 11 5 6 1010.0 1010.0 0.0
25/04:00am 21.4 22.1 17.0 76 2.7 SW 9 13 5 7 1010.0 1010.0 0.0
25/03:30am 21.7 21.7 17.1 75 2.8 SW 13 15 7 8 1010.0 1010.0 0.0
25/03:00am 22.1 22.1 17.2 74 3.0 SW 13 15 7 8 1010.1 1010.1 0.0
25/02:30am 22.5 22.2 17.4 73 3.1 SW 15 20 8 11 1010.2 1010.2 0.0
25/02:00am 22.8 22.2 17.5 72 3.3 SW 17 20 9 11 1010.2 1010.2 0.0
25/01:30am 23.1 22.2 17.8 72 3.3 SW 19 26 10 14 1010.3 1010.3 0.0
25/01:00am 23.3 22.6 18.2 73 3.2 SW 19 24 10 13 1010.3 1010.3 0.0
25/12:30am 23.8 22.9 18.2 71 3.5 SW 20 30 11 16 1010.7 1010.7 0.0
25/12:00am 23.9 23.1 17.9 69 3.8 WSW 19 24 10 13 1010.9 1010.9 0.0
 
Date/Time
WST
Temp
°C
App
Temp
°C
Dew
Point
Rel
Hum
%
Delta-T
°C
Wind Press
QNH
hPa
Press
MSL
hPa
Rain
since 9 am
mm
Dir
 
Spd
km/h
Gust
km/h
Spd
kts
Gust
kts
24/11:30pm 24.1 23.4 18.3 70 3.7 WSW 19 20 10 11 1010.8 1010.8 0.0
24/11:00pm 24.2 24.6 19.1 73 3.3 WSW 15 20 8 11 1010.9 1010.9 0.0
24/10:30pm 24.1 24.7 19.4 75 3.0 WSW 15 17 8 9 1011.0 1011.0 0.0
24/10:00pm 24.5 24.3 19.3 73 3.3 W 19 22 10 12 1010.9 1010.9 0.0
24/09:30pm 24.8 24.5 19.2 71 3.6 W 19 24 10 13 1010.7 1010.7 0.0
24/09:00pm 24.8 24.8 19.0 70 3.7 W 17 22 9 12 1010.6 1010.6 0.0
24/08:30pm 25.1 24.6 19.2 70 3.8 W 20 26 11 14 1010.5 1010.5 0.0
24/08:00pm 25.4 24.5 19.1 68 4.0 W 22 28 12 15 1010.1 1010.1 0.0
24/07:30pm 25.5 24.3 19.2 68 4.0 W 24 32 13 17 1009.8 1009.8 0.0
24/07:00pm 25.5 23.1 19.2 68 4.0 W 30 37 16 20 1009.5 1009.5 0.0
24/06:30pm 25.8 23.6 20.4 72 3.5 W 32 39 17 21 1009.3 1009.3 0.0
24/06:00pm 26.5 23.9 19.6 66 4.5 W 32 39 17 21 1009.1 1009.1 0.0
24/05:30pm 27.2 24.6 19.8 64 4.8 W 33 39 18 21 1009.0 1009.0 0.0

Other Formats:

Comma delimited format used in spreadsheet applications
http://www.bom.gov.au/fwo/IDW60801/IDW60801.95305.axf

JavaScript Object Notation format (JSON) in row-major order
http://www.bom.gov.au/fwo/IDW60801/IDW60801.95305.json